Time;durP1;ratioP1;P1;durP2;ratioP2;P2;SDS_P1;SDS_P2;PMS_P1;PMS_P2;Temp;Humidity;BMP_temperature;BMP_pressure;BME280_temperature;BME280_humidity;BME280_pressure;Samples;Min_cycle;Max_cycle;Signal;HPM_P1;HPM_P2
2023/08/15 00:00:09;;;;;;;7.82;5.43;;;;;;;;;;5055636;28;20409;-60
2023/08/15 00:02:36;;;;;;;5.90;5.27;;;;;;;;;;5059500;28;20412;-60
2023/08/15 00:05:05;;;;;;;7.15;5.78;;;;;;;;;;5061584;28;20407;-60
2023/08/15 00:07:32;;;;;;;6.00;5.40;;;;;;;;;;5059211;28;20479;-59
2023/08/15 00:09:59;;;;;;;6.10;5.07;;;;;;;;;;5059919;28;20413;-60
2023/08/15 00:12:26;;;;;;;8.43;6.05;;;;;;;;;;5062703;28;20413;-60
2023/08/15 00:14:53;;;;;;;8.50;5.83;;;;;;;;;;5058823;28;20417;-60
2023/08/15 00:17:20;;;;;;;6.53;5.53;;;;;;;;;;5054853;28;20802;-60
2023/08/15 00:19:47;;;;;;;7.70;5.80;;;;;;;;;;5059518;28;20424;-60
2023/08/15 00:22:15;;;;;;;7.35;5.93;;;;;;;;;;5060726;28;20483;-60
2023/08/15 00:24:42;;;;;;;8.25;5.85;;;;;;;;;;5067284;28;20434;-60
2023/08/15 00:27:09;;;;;;;7.00;5.80;;;;;;;;;;5056888;28;20524;-60
2023/08/15 00:29:36;;;;;;;7.55;5.63;;;;;;;;;;5061036;28;20413;-60
2023/08/15 00:32:04;;;;;;;7.60;5.65;;;;;;;;;;5059914;28;20459;-60
2023/08/15 00:34:31;;;;;;;8.57;5.95;;;;;;;;;;5063530;28;20467;-60
2023/08/15 00:36:58;;;;;;;6.57;5.90;;;;;;;;;;5061840;28;20400;-60
2023/08/15 00:39:26;;;;;;;8.73;5.95;;;;;;;;;;5064803;28;20414;-60
2023/08/15 00:41:53;;;;;;;8.57;6.10;;;;;;;;;;5061456;28;20411;-60
2023/08/15 00:44:20;;;;;;;7.00;5.85;;;;;;;;;;5067958;28;20412;-59
2023/08/15 00:46:47;;;;;;;8.77;6.55;;;;;;;;;;5064582;28;20481;-60
2023/08/15 00:49:14;;;;;;;7.82;5.90;;;;;;;;;;5068350;28;20423;-60
2023/08/15 00:51:42;;;;;;;9.10;6.30;;;;;;;;;;5065674;28;20419;-59
2023/08/15 00:54:09;;;;;;;7.88;6.38;;;;;;;;;;5063224;28;20553;-60
2023/08/15 00:56:37;;;;;;;7.53;6.00;;;;;;;;;;5057728;28;20408;-60
2023/08/15 00:59:05;;;;;;;9.93;6.60;;;;;;;;;;5060180;28;20417;-59
2023/08/15 01:01:32;;;;;;;7.43;6.20;;;;;;;;;;5062554;28;20920;-60
2023/08/15 01:03:59;;;;;;;7.63;6.18;;;;;;;;;;5060799;28;20527;-59
2023/08/15 01:06:26;;;;;;;7.63;6.18;;;;;;;;;;5063280;28;20452;-60
2023/08/15 01:08:53;;;;;;;6.80;5.80;;;;;;;;;;5062224;28;20409;-58
2023/08/15 01:11:20;;;;;;;9.75;6.60;;;;;;;;;;5063114;28;20417;-60
2023/08/15 01:13:51;;;;;;;8.23;6.63;;;;;;;;;;5056612;28;20899;-59
2023/08/15 01:16:22;;;;;;;9.10;6.60;;;;;;;;;;5048417;28;20891;-60
2023/08/15 01:18:53;;;;;;;8.30;6.38;;;;;;;;;;5060257;28;20419;-60
2023/08/15 01:21:22;;;;;;;8.07;6.38;;;;;;;;;;5055921;28;20501;-59
2023/08/15 01:23:52;;;;;;;9.77;6.90;;;;;;;;;;5060861;28;20409;-60
2023/08/15 01:26:19;;;;;;;7.63;6.13;;;;;;;;;;5051524;28;20427;-59
2023/08/15 01:28:46;;;;;;;8.85;7.65;;;;;;;;;;5057020;28;20476;-58
2023/08/15 01:31:16;;;;;;;8.40;6.97;;;;;;;;;;5060954;28;20413;-59
2023/08/15 01:33:48;;;;;;;7.75;6.63;;;;;;;;;;5061283;28;20408;-60
2023/08/15 01:36:17;;;;;;;9.25;6.45;;;;;;;;;;5061576;28;20448;-60
2023/08/15 01:38:47;;;;;;;7.63;6.70;;;;;;;;;;5061423;28;20789;-59
2023/08/15 01:41:19;;;;;;;8.17;6.73;;;;;;;;;;5061975;28;20471;-60
2023/08/15 01:43:46;;;;;;;8.20;7.00;;;;;;;;;;5061171;28;20881;-60
2023/08/15 01:46:14;;;;;;;9.57;7.60;;;;;;;;;;5061878;28;20483;-59
2023/08/15 01:48:41;;;;;;;9.18;7.20;;;;;;;;;;5061741;28;20460;-59
2023/08/15 01:51:08;;;;;;;8.77;7.70;;;;;;;;;;5059937;28;20501;-60
2023/08/15 01:53:35;;;;;;;8.23;7.40;;;;;;;;;;5060914;28;20968;-60
2023/08/15 01:56:03;;;;;;;9.03;7.33;;;;;;;;;;5059100;28;20413;-59
2023/08/15 01:58:31;;;;;;;8.82;7.85;;;;;;;;;;5054633;28;20419;-60
2023/08/15 02:00:59;;;;;;;9.93;7.30;;;;;;;;;;5061035;28;20437;-59
2023/08/15 02:03:26;;;;;;;10.33;7.40;;;;;;;;;;5061156;28;20410;-60
2023/08/15 02:05:53;;;;;;;7.80;6.82;;;;;;;;;;5061969;28;20825;-60
2023/08/15 02:08:22;;;;;;;8.37;7.33;;;;;;;;;;5061310;28;20417;-58
2023/08/15 02:10:49;;;;;;;9.65;6.97;;;;;;;;;;5061515;28;20415;-58
2023/08/15 02:13:16;;;;;;;8.27;6.90;;;;;;;;;;5061110;28;20811;-59
2023/08/15 02:15:45;;;;;;;7.68;6.63;;;;;;;;;;5062348;28;20457;-59
2023/08/15 02:18:12;;;;;;;7.93;6.78;;;;;;;;;;5059360;28;20405;-55
2023/08/15 02:20:39;;;;;;;8.15;6.38;;;;;;;;;;5062550;28;20407;-58
2023/08/15 02:23:06;;;;;;;7.10;6.32;;;;;;;;;;5052483;28;20420;-59
2023/08/15 02:25:33;;;;;;;8.93;6.70;;;;;;;;;;5059733;28;20542;-59
2023/08/15 02:28:00;;;;;;;7.80;6.28;;;;;;;;;;5049848;28;20485;-59
2023/08/15 02:30:27;;;;;;;8.85;6.57;;;;;;;;;;5060789;28;20882;-59
2023/08/15 02:32:55;;;;;;;8.33;6.30;;;;;;;;;;5054039;28;20469;-59
2023/08/15 02:35:22;;;;;;;8.35;6.40;;;;;;;;;;5060415;28;20514;-60
2023/08/15 02:37:49;;;;;;;6.85;5.95;;;;;;;;;;5050368;28;20909;-60
2023/08/15 02:40:16;;;;;;;8.23;6.20;;;;;;;;;;5059537;28;20408;-59
2023/08/15 02:42:43;;;;;;;7.72;5.55;;;;;;;;;;5054922;28;20412;-59
2023/08/15 02:45:10;;;;;;;7.30;5.35;;;;;;;;;;5053539;28;20867;-59
2023/08/15 02:47:37;;;;;;;6.53;5.33;;;;;;;;;;5056308;28;20510;-59
2023/08/15 02:50:06;;;;;;;6.43;5.40;;;;;;;;;;5055788;28;20413;-59
2023/08/15 02:52:33;;;;;;;6.40;5.65;;;;;;;;;;5056162;28;20438;-59
2023/08/15 02:55:00;;;;;;;6.47;5.10;;;;;;;;;;5056688;28;20456;-59
2023/08/15 02:57:27;;;;;;;7.10;5.03;;;;;;;;;;5051388;28;20406;-59
2023/08/15 02:59:54;;;;;;;5.90;5.22;;;;;;;;;;5058828;28;20409;-60
2023/08/15 03:02:21;;;;;;;7.28;5.43;;;;;;;;;;5058151;28;20409;-59
2023/08/15 03:04:48;;;;;;;8.68;5.05;;;;;;;;;;5059919;28;20884;-60
2023/08/15 03:07:17;;;;;;;6.22;5.18;;;;;;;;;;5058905;28;20433;-60
2023/08/15 03:09:43;;;;;;;7.80;5.40;;;;;;;;;;5059877;28;20411;-57
2023/08/15 03:12:10;;;;;;;6.28;5.32;;;;;;;;;;5059551;28;20421;-60
2023/08/15 03:14:38;;;;;;;6.57;5.38;;;;;;;;;;5051860;28;20475;-62
2023/08/15 03:17:07;;;;;;;8.10;5.20;;;;;;;;;;5052572;28;20416;-60
2023/08/15 03:19:36;;;;;;;6.10;5.05;;;;;;;;;;5049439;28;21297;-60
2023/08/15 03:22:03;;;;;;;7.40;5.30;;;;;;;;;;5052368;28;20414;-59
2023/08/15 03:24:31;;;;;;;6.55;5.22;;;;;;;;;;5055926;28;20466;-60
2023/08/15 03:26:59;;;;;;;7.75;5.47;;;;;;;;;;5054680;28;20437;-61
2023/08/15 03:29:26;;;;;;;5.80;5.20;;;;;;;;;;5059067;28;20414;-60
2023/08/15 03:31:55;;;;;;;6.07;5.30;;;;;;;;;;5059841;28;20878;-60
2023/08/15 03:34:22;;;;;;;6.07;5.18;;;;;;;;;;5058133;28;20417;-61
2023/08/15 03:36:49;;;;;;;8.40;6.00;;;;;;;;;;5059949;28;20403;-61
2023/08/15 03:39:16;;;;;;;8.38;5.60;;;;;;;;;;5057726;28;20502;-64
2023/08/15 03:41:45;;;;;;;8.23;5.93;;;;;;;;;;5057089;28;20457;-66
2023/08/15 03:44:12;;;;;;;8.30;6.38;;;;;;;;;;5055877;28;20849;-66
2023/08/15 03:46:40;;;;;;;8.45;6.80;;;;;;;;;;5062562;28;20840;-66
2023/08/15 03:49:07;;;;;;;9.13;6.82;;;;;;;;;;5058024;28;20421;-66
2023/08/15 03:51:34;;;;;;;9.65;6.90;;;;;;;;;;5060922;28;20416;-66
2023/08/15 03:54:01;;;;;;;11.05;7.75;;;;;;;;;;5057658;28;20408;-66
2023/08/15 03:56:28;;;;;;;10.77;7.57;;;;;;;;;;5058803;28;20465;-66
2023/08/15 03:58:56;;;;;;;9.40;7.18;;;;;;;;;;5057528;28;20415;-66
2023/08/15 04:01:24;;;;;;;9.27;7.55;;;;;;;;;;5057669;28;20422;-66
2023/08/15 04:03:51;;;;;;;12.05;8.00;;;;;;;;;;5051174;28;20469;-66
2023/08/15 04:06:18;;;;;;;10.40;8.17;;;;;;;;;;5059387;28;20412;-67
2023/08/15 04:08:46;;;;;;;22.27;16.98;;;;;;;;;;5058237;28;21125;-67
2023/08/15 04:11:13;;;;;;;14.75;11.80;;;;;;;;;;5059996;28;20413;-60
2023/08/15 04:13:40;;;;;;;10.68;8.98;;;;;;;;;;5058666;28;20412;-61
2023/08/15 04:16:08;;;;;;;13.10;9.48;;;;;;;;;;5058099;28;20416;-61
2023/08/15 04:18:36;;;;;;;11.65;9.27;;;;;;;;;;5058842;28;20823;-61
2023/08/15 04:21:03;;;;;;;12.52;10.02;;;;;;;;;;5062364;28;20430;-61
2023/08/15 04:23:30;;;;;;;13.40;9.68;;;;;;;;;;5063057;28;20423;-61
2023/08/15 04:25:57;;;;;;;13.70;9.43;;;;;;;;;;5057608;28;20471;-61
2023/08/15 04:28:24;;;;;;;12.40;9.75;;;;;;;;;;5054547;28;20434;-61
2023/08/15 04:30:51;;;;;;;14.63;10.65;;;;;;;;;;5059198;28;20417;-61
2023/08/15 04:33:20;;;;;;;13.35;9.25;;;;;;;;;;5058392;28;20479;-61
2023/08/15 04:35:46;;;;;;;9.95;8.00;;;;;;;;;;5058620;28;20494;-61
2023/08/15 04:38:14;;;;;;;10.43;7.97;;;;;;;;;;5058132;28;20412;-61
2023/08/15 04:40:43;;;;;;;13.40;8.30;;;;;;;;;;5060409;28;20926;-61
2023/08/15 04:43:11;;;;;;;10.63;8.20;;;;;;;;;;5058250;28;20483;-61
2023/08/15 04:45:43;;;;;;;11.80;8.13;;;;;;;;;;5058411;28;20503;-61
2023/08/15 04:48:10;;;;;;;9.98;7.90;;;;;;;;;;5058804;28;20436;-61
2023/08/15 04:50:38;;;;;;;12.63;8.35;;;;;;;;;;5065127;28;20883;-61
2023/08/15 04:53:05;;;;;;;10.43;7.65;;;;;;;;;;5058646;28;20467;-61
2023/08/15 04:55:32;;;;;;;11.90;7.57;;;;;;;;;;5057114;28;20413;-61
2023/08/15 04:57:59;;;;;;;11.90;7.97;;;;;;;;;;5053093;28;20404;-61
2023/08/15 05:00:26;;;;;;;9.57;7.63;;;;;;;;;;5057838;28;20459;-61
2023/08/15 05:02:53;;;;;;;12.57;7.88;;;;;;;;;;5061919;28;20489;-61
2023/08/15 05:05:20;;;;;;;8.68;7.50;;;;;;;;;;5059405;28;20413;-61
2023/08/15 05:07:48;;;;;;;11.90;7.95;;;;;;;;;;5060416;28;20436;-61
2023/08/15 05:10:15;;;;;;;10.63;8.05;;;;;;;;;;5060713;28;20405;-61
2023/08/15 05:12:42;;;;;;;11.93;7.72;;;;;;;;;;5063626;28;20458;-61
2023/08/15 05:15:09;;;;;;;11.43;8.17;;;;;;;;;;5063189;28;20899;-61
2023/08/15 05:17:36;;;;;;;13.05;8.07;;;;;;;;;;5064026;28;20403;-61
2023/08/15 05:20:04;;;;;;;11.35;7.80;;;;;;;;;;5057777;28;20504;-61
2023/08/15 05:22:31;;;;;;;11.90;8.13;;;;;;;;;;5063860;28;20407;-61
2023/08/15 05:24:59;;;;;;;12.90;8.73;;;;;;;;;;5062052;28;20820;-62
2023/08/15 05:27:26;;;;;;;12.25;8.73;;;;;;;;;;5053691;28;20485;-62
2023/08/15 05:29:53;;;;;;;13.20;8.75;;;;;;;;;;5064970;28;20482;-62
2023/08/15 05:32:20;;;;;;;13.05;7.90;;;;;;;;;;5060453;28;20417;-63
2023/08/15 05:34:47;;;;;;;11.05;8.00;;;;;;;;;;5066967;28;20447;-62
2023/08/15 05:37:14;;;;;;;11.82;7.95;;;;;;;;;;5061421;28;20902;-64
2023/08/15 05:39:41;;;;;;;12.23;8.52;;;;;;;;;;5061276;28;20487;-61
2023/08/15 05:42:10;;;;;;;10.98;8.10;;;;;;;;;;5061688;28;20418;-61
2023/08/15 05:44:38;;;;;;;13.15;9.25;;;;;;;;;;5059070;28;20509;-61
2023/08/15 05:47:05;;;;;;;12.88;9.13;;;;;;;;;;5061237;28;20479;-61
2023/08/15 05:49:32;;;;;;;14.13;8.95;;;;;;;;;;5061516;28;20417;-60
2023/08/15 05:52:00;;;;;;;10.30;8.85;;;;;;;;;;5062580;28;20417;-61
2023/08/15 05:54:27;;;;;;;13.38;9.07;;;;;;;;;;5062363;28;20500;-61
2023/08/15 05:56:54;;;;;;;12.80;9.27;;;;;;;;;;5059023;28;20411;-61
2023/08/15 05:59:22;;;;;;;12.50;8.88;;;;;;;;;;5057519;28;20953;-61
2023/08/15 06:01:50;;;;;;;12.75;8.90;;;;;;;;;;5062625;28;20415;-61
2023/08/15 06:04:17;;;;;;;10.45;9.38;;;;;;;;;;5060175;28;20418;-61
2023/08/15 06:06:44;;;;;;;11.23;8.35;;;;;;;;;;5061864;28;20415;-61
2023/08/15 06:09:11;;;;;;;10.05;7.82;;;;;;;;;;5059545;28;20455;-61
2023/08/15 06:11:38;;;;;;;11.10;7.60;;;;;;;;;;5063341;28;20499;-61
2023/08/15 06:14:05;;;;;;;11.45;8.02;;;;;;;;;;5059617;28;20482;-61
2023/08/15 06:16:33;;;;;;;10.93;8.00;;;;;;;;;;5053359;28;20415;-65
2023/08/15 06:19:00;;;;;;;10.55;7.65;;;;;;;;;;5055338;28;20403;-64
2023/08/15 06:21:27;;;;;;;10.68;7.97;;;;;;;;;;5061401;28;20411;-64
2023/08/15 06:23:54;;;;;;;10.02;7.55;;;;;;;;;;5051698;28;20461;-64
2023/08/15 06:26:21;;;;;;;10.02;7.65;;;;;;;;;;5058234;28;20891;-67
2023/08/15 06:28:48;;;;;;;11.67;7.87;;;;;;;;;;5054491;28;20423;-66
2023/08/15 06:31:15;;;;;;;10.38;7.10;;;;;;;;;;5058491;28;20414;-66
2023/08/15 06:33:43;;;;;;;11.73;7.60;;;;;;;;;;5062237;28;20419;-66
2023/08/15 06:36:10;;;;;;;12.47;8.40;;;;;;;;;;5056417;28;20761;-65
2023/08/15 06:38:37;;;;;;;10.43;8.50;;;;;;;;;;5061113;28;20461;-65
2023/08/15 06:41:05;;;;;;;11.05;8.38;;;;;;;;;;5059533;28;20421;-65
2023/08/15 06:43:32;;;;;;;10.02;8.45;;;;;;;;;;5060624;28;20417;-66
2023/08/15 06:45:59;;;;;;;14.05;8.40;;;;;;;;;;5059585;28;20413;-64
2023/08/15 06:48:26;;;;;;;12.07;8.70;;;;;;;;;;5059672;28;20486;-64
2023/08/15 06:50:55;;;;;;;11.13;8.43;;;;;;;;;;5063106;28;20417;-65
2023/08/15 06:53:22;;;;;;;10.95;7.82;;;;;;;;;;5059895;28;20417;-65
2023/08/15 06:55:49;;;;;;;9.98;7.63;;;;;;;;;;5059666;28;20896;-64
2023/08/15 06:58:17;;;;;;;9.00;7.03;;;;;;;;;;5052137;28;20505;-65
2023/08/15 07:00:44;;;;;;;12.85;7.50;;;;;;;;;;5059735;28;20455;-66
2023/08/15 07:03:11;;;;;;;12.32;7.25;;;;;;;;;;5059634;28;20417;-66
2023/08/15 07:05:38;;;;;;;11.27;7.25;;;;;;;;;;5059304;28;20791;-66
2023/08/15 07:08:07;;;;;;;13.88;7.88;;;;;;;;;;5059516;28;20429;-64
2023/08/15 07:10:35;;;;;;;10.55;7.70;;;;;;;;;;5059369;28;20474;-64
2023/08/15 07:13:02;;;;;;;12.20;7.68;;;;;;;;;;5060437;28;20474;-64
2023/08/15 07:15:29;;;;;;;10.82;7.57;;;;;;;;;;5059075;28;20413;-63
2023/08/15 07:17:56;;;;;;;10.75;7.55;;;;;;;;;;5062499;28;20408;-63
2023/08/15 07:20:24;;;;;;;13.50;7.22;;;;;;;;;;5058424;28;20457;-67
2023/08/15 07:22:51;;;;;;;11.80;7.45;;;;;;;;;;5055688;28;20465;-65
2023/08/15 07:25:19;;;;;;;10.93;7.28;;;;;;;;;;5057565;28;20459;-68
2023/08/15 07:27:46;;;;;;;10.55;7.20;;;;;;;;;;5055364;28;20479;-67
2023/08/15 07:30:13;;;;;;;11.50;7.13;;;;;;;;;;5058084;28;20404;-63
2023/08/15 07:32:41;;;;;;;10.97;6.50;;;;;;;;;;5065556;28;20484;-63
2023/08/15 07:35:08;;;;;;;8.80;6.68;;;;;;;;;;5058673;28;20407;-63
2023/08/15 07:37:35;;;;;;;9.88;6.80;;;;;;;;;;5063128;28;20465;-66
2023/08/15 07:40:05;;;;;;;12.10;7.30;;;;;;;;;;5061290;28;21075;-65
2023/08/15 07:42:34;;;;;;;11.02;7.20;;;;;;;;;;5060496;28;20813;-64
2023/08/15 07:45:02;;;;;;;9.50;7.40;;;;;;;;;;5055002;28;20405;-64
2023/08/15 07:47:33;;;;;;;11.38;8.02;;;;;;;;;;5058513;28;20411;-64
2023/08/15 07:50:12;;;;;;;12.70;8.05;;;;;;;;;;5057415;28;20434;-65
2023/08/15 07:52:39;;;;;;;11.23;8.75;;;;;;;;;;5061388;28;20835;-63
2023/08/15 07:55:07;;;;;;;9.68;8.10;;;;;;;;;;5057540;28;20411;-64
2023/08/15 07:57:35;;;;;;;12.65;7.90;;;;;;;;;;5055748;28;20415;-64
2023/08/15 08:00:03;;;;;;;12.10;8.10;;;;;;;;;;5057452;28;20408;-64
2023/08/15 08:02:30;;;;;;;10.80;8.10;;;;;;;;;;5058831;28;20945;-65
2023/08/15 08:04:58;;;;;;;13.60;8.18;;;;;;;;;;5057815;28;20412;-65
2023/08/15 08:07:25;;;;;;;11.23;8.60;;;;;;;;;;5058461;28;20414;-65
2023/08/15 08:09:52;;;;;;;11.10;8.00;;;;;;;;;;5062641;28;20458;-65
2023/08/15 08:12:19;;;;;;;11.98;8.05;;;;;;;;;;5060303;28;20439;-65
2023/08/15 08:14:47;;;;;;;13.73;7.50;;;;;;;;;;5059115;28;20847;-65
2023/08/15 08:17:14;;;;;;;9.80;7.00;;;;;;;;;;5054419;28;20560;-65
2023/08/15 08:19:41;;;;;;;9.52;6.05;;;;;;;;;;5060058;28;20411;-65
2023/08/15 08:22:08;;;;;;;11.25;6.85;;;;;;;;;;5057776;28;20413;-65
2023/08/15 08:24:35;;;;;;;12.38;6.68;;;;;;;;;;5059210;28;20413;-65
2023/08/15 08:27:04;;;;;;;9.38;6.05;;;;;;;;;;5055210;28;20409;-65
2023/08/15 08:29:31;;;;;;;12.70;6.55;;;;;;;;;;5053126;28;20850;-65
2023/08/15 08:31:59;;;;;;;10.80;6.53;;;;;;;;;;5058433;28;20413;-65
2023/08/15 08:34:27;;;;;;;9.27;5.93;;;;;;;;;;5057591;28;20872;-65
2023/08/15 08:36:54;;;;;;;9.10;5.75;;;;;;;;;;5058788;28;20416;-65
2023/08/15 08:39:21;;;;;;;10.90;6.40;;;;;;;;;;5058166;28;20771;-65
2023/08/15 08:41:48;;;;;;;10.30;6.03;;;;;;;;;;5058160;28;20417;-65
2023/08/15 08:44:15;;;;;;;7.68;5.88;;;;;;;;;;5060656;28;20416;-65
2023/08/15 08:46:42;;;;;;;9.70;5.68;;;;;;;;;;5062134;28;20487;-65
2023/08/15 08:49:11;;;;;;;6.60;5.05;;;;;;;;;;5056742;28;20475;-66
2023/08/15 08:51:39;;;;;;;7.88;4.63;;;;;;;;;;5061778;28;20409;-66
2023/08/15 08:54:06;;;;;;;6.35;4.30;;;;;;;;;;5062418;28;20412;-66
2023/08/15 08:56:34;;;;;;;6.83;4.30;;;;;;;;;;5056246;28;20407;-66
2023/08/15 08:59:03;;;;;;;8.75;4.50;;;;;;;;;;5058906;28;20404;-66
2023/08/15 09:01:31;;;;;;;7.32;3.90;;;;;;;;;;5062836;28;20412;-66
2023/08/15 09:03:58;;;;;;;6.27;3.93;;;;;;;;;;5063368;28;20490;-65
2023/08/15 09:06:26;;;;;;;5.55;3.65;;;;;;;;;;5060007;28;20920;-65
2023/08/15 09:08:53;;;;;;;7.63;3.83;;;;;;;;;;5061712;28;20514;-65
2023/08/15 09:11:21;;;;;;;5.93;3.28;;;;;;;;;;5060411;28;20420;-65
2023/08/15 09:13:48;;;;;;;5.53;3.42;;;;;;;;;;5063591;28;20472;-65
2023/08/15 09:16:16;;;;;;;5.57;3.23;;;;;;;;;;5060497;28;20492;-65
2023/08/15 09:18:43;;;;;;;5.38;3.00;;;;;;;;;;5063786;28;20487;-66
2023/08/15 09:21:10;;;;;;;6.23;2.73;;;;;;;;;;5060817;28;20419;-65
2023/08/15 09:23:41;;;;;;;4.65;2.63;;;;;;;;;;5063161;28;20962;-65
2023/08/15 09:26:12;;;;;;;4.80;2.60;;;;;;;;;;5054389;28;20409;-65
2023/08/15 09:28:40;;;;;;;4.80;2.60;;;;;;;;;;5059593;28;20514;-65
2023/08/15 09:31:10;;;;;;;5.05;2.53;;;;;;;;;;5048099;28;20519;-65
2023/08/15 09:33:37;;;;;;;5.97;2.53;;;;;;;;;;5055438;28;20407;-65
2023/08/15 09:36:05;;;;;;;4.93;2.47;;;;;;;;;;5055775;28;20415;-65
2023/08/15 09:38:32;;;;;;;5.38;2.40;;;;;;;;;;5057180;28;20404;-66
2023/08/15 09:41:00;;;;;;;2.88;2.20;;;;;;;;;;5059636;28;20881;-65
2023/08/15 09:43:27;;;;;;;4.13;2.53;;;;;;;;;;5057988;28;20479;-64
2023/08/15 09:45:54;;;;;;;4.00;2.28;;;;;;;;;;5049574;28;20408;-65
2023/08/15 09:48:21;;;;;;;5.95;2.60;;;;;;;;;;5059690;28;20470;-65
2023/08/15 09:50:49;;;;;;;4.40;2.30;;;;;;;;;;5060485;28;20465;-64
2023/08/15 09:53:17;;;;;;;4.80;2.20;;;;;;;;;;5059134;28;20467;-65
2023/08/15 09:55:44;;;;;;;5.40;2.40;;;;;;;;;;5052581;28;20505;-65
2023/08/15 09:58:12;;;;;;;4.43;2.40;;;;;;;;;;5055983;28;20417;-66
2023/08/15 10:00:40;;;;;;;3.67;2.17;;;;;;;;;;5060374;28;20405;-65
2023/08/15 10:03:11;;;;;;;5.13;2.20;;;;;;;;;;5060167;28;20778;-65
2023/08/15 10:05:40;;;;;;;5.40;2.10;;;;;;;;;;5057845;28;20417;-66
2023/08/15 10:08:08;;;;;;;3.03;2.00;;;;;;;;;;5059578;28;20425;-65
2023/08/15 10:10:38;;;;;;;4.78;2.00;;;;;;;;;;5057956;28;20842;-66
2023/08/15 10:13:05;;;;;;;4.53;2.20;;;;;;;;;;5060003;28;20839;-67
2023/08/15 10:15:35;;;;;;;4.20;2.00;;;;;;;;;;5060341;28;20435;-66
2023/08/15 10:18:02;;;;;;;3.97;1.90;;;;;;;;;;5059281;28;20448;-67
2023/08/15 10:20:35;;;;;;;4.80;1.92;;;;;;;;;;5059405;28;20417;-66
2023/08/15 10:23:02;;;;;;;4.83;1.67;;;;;;;;;;5059949;28;20492;-65
2023/08/15 10:25:35;;;;;;;3.63;1.90;;;;;;;;;;5058484;28;20409;-65
2023/08/15 10:28:05;;;;;;;3.03;1.90;;;;;;;;;;5053946;28;20414;-64
2023/08/15 10:30:36;;;;;;;4.72;1.98;;;;;;;;;;5057517;28;20479;-65
2023/08/15 10:33:12;;;;;;;3.92;1.92;;;;;;;;;;5059520;28;20412;-65
2023/08/15 10:35:44;;;;;;;5.07;1.83;;;;;;;;;;5061547;28;20407;-65
2023/08/15 10:38:14;;;;;;;4.70;1.80;;;;;;;;;;5059799;28;20403;-65
2023/08/15 10:40:42;;;;;;;3.85;1.73;;;;;;;;;;5056504;28;20461;-65
2023/08/15 10:43:10;;;;;;;3.22;1.67;;;;;;;;;;5054551;28;20473;-65
2023/08/15 10:45:41;;;;;;;2.75;1.40;;;;;;;;;;5058852;28;20888;-65
2023/08/15 10:48:08;;;;;;;4.40;1.80;;;;;;;;;;5055512;28;20806;-65
2023/08/15 10:50:36;;;;;;;2.53;1.52;;;;;;;;;;5057582;28;20937;-64
2023/08/15 10:53:04;;;;;;;2.93;1.50;;;;;;;;;;5058469;28;21034;-66
2023/08/15 10:55:32;;;;;;;3.80;1.67;;;;;;;;;;5059192;28;20416;-66
2023/08/15 10:57:59;;;;;;;4.07;1.90;;;;;;;;;;5044765;28;21174;-66
2023/08/15 11:00:27;;;;;;;4.15;2.00;;;;;;;;;;5058086;28;20432;-60
2023/08/15 11:02:55;;;;;;;5.10;1.57;;;;;;;;;;5059452;28;20919;-65
2023/08/15 11:05:23;;;;;;;4.13;1.80;;;;;;;;;;5057113;28;20422;-63
2023/08/15 11:07:50;;;;;;;3.30;1.48;;;;;;;;;;5059099;28;20461;-63
2023/08/15 11:10:17;;;;;;;3.40;1.75;;;;;;;;;;5058552;28;20429;-64
2023/08/15 11:12:48;;;;;;;4.32;1.60;;;;;;;;;;5059824;28;20472;-64
2023/08/15 11:15:15;;;;;;;3.95;1.83;;;;;;;;;;5058099;28;20504;-63
2023/08/15 11:17:45;;;;;;;4.97;1.83;;;;;;;;;;5059330;28;20463;-64
2023/08/15 11:20:14;;;;;;;4.70;1.67;;;;;;;;;;5053026;28;20401;-62
2023/08/15 11:22:41;;;;;;;2.75;1.67;;;;;;;;;;5057702;28;20432;-63
2023/08/15 11:25:08;;;;;;;7.05;1.98;;;;;;;;;;5059357;28;20471;-62
2023/08/15 11:27:40;;;;;;;5.30;2.10;;;;;;;;;;5049344;28;20421;-61
2023/08/15 11:30:07;;;;;;;3.13;1.50;;;;;;;;;;5058114;28;20419;-62
2023/08/15 11:32:34;;;;;;;3.15;1.70;;;;;;;;;;5059620;28;20905;-62
2023/08/15 11:35:01;;;;;;;7.55;2.22;;;;;;;;;;5059482;28;20467;-62
2023/08/15 11:37:30;;;;;;;4.70;1.95;;;;;;;;;;5059584;28;20413;-62
2023/08/15 11:39:57;;;;;;;3.60;1.90;;;;;;;;;;5067444;28;20411;-62
2023/08/15 11:42:24;;;;;;;4.50;2.00;;;;;;;;;;5060216;28;20467;-62
2023/08/15 11:45:01;;;;;;;4.43;2.05;;;;;;;;;;5059133;28;20417;-62
2023/08/15 11:47:28;;;;;;;4.93;1.70;;;;;;;;;;5057808;28;20498;-62
2023/08/15 11:49:55;;;;;;;4.88;1.90;;;;;;;;;;5058972;28;20431;-62
2023/08/15 11:52:22;;;;;;;4.47;1.80;;;;;;;;;;5059011;28;20478;-62
2023/08/15 11:54:51;;;;;;;6.72;2.10;;;;;;;;;;5059386;28;20425;-61
2023/08/15 11:57:32;;;;;;;4.60;1.95;;;;;;;;;;5053675;28;20899;-62
2023/08/15 12:00:01;;;;;;;5.18;2.17;;;;;;;;;;5059303;28;20449;-62
2023/08/15 12:02:28;;;;;;;4.60;2.25;;;;;;;;;;5057869;28;20911;-62
2023/08/15 12:04:55;;;;;;;4.97;2.00;;;;;;;;;;5058734;28;20485;-62
2023/08/15 12:07:22;;;;;;;5.90;2.30;;;;;;;;;;5058248;28;20416;-62
2023/08/15 12:09:50;;;;;;;6.95;2.28;;;;;;;;;;5058906;28;20429;-62
2023/08/15 12:12:20;;;;;;;7.88;2.40;;;;;;;;;;5058567;28;20497;-62
2023/08/15 12:14:47;;;;;;;4.90;2.30;;;;;;;;;;5058550;28;20469;-61
2023/08/15 12:17:14;;;;;;;3.92;1.98;;;;;;;;;;5057832;28;20421;-61
2023/08/15 12:19:41;;;;;;;4.93;2.10;;;;;;;;;;5059315;28;20410;-62
2023/08/15 12:22:08;;;;;;;5.25;2.17;;;;;;;;;;5059340;28;20493;-61
2023/08/15 12:24:35;;;;;;;5.35;2.20;;;;;;;;;;5058660;28;20417;-62
2023/08/15 12:27:05;;;;;;;5.43;1.88;;;;;;;;;;5060521;28;20415;-62
2023/08/15 12:29:32;;;;;;;5.95;2.00;;;;;;;;;;5049978;28;20799;-63
2023/08/15 12:31:59;;;;;;;4.80;2.03;;;;;;;;;;5060529;28;20438;-64
2023/08/15 12:34:26;;;;;;;5.93;2.00;;;;;;;;;;5057038;28;20894;-63
2023/08/15 12:36:53;;;;;;;4.85;2.20;;;;;;;;;;5059679;28;20480;-63
2023/08/15 12:39:20;;;;;;;4.60;1.92;;;;;;;;;;5057290;28;20413;-63
2023/08/15 12:41:47;;;;;;;3.92;1.80;;;;;;;;;;5060731;28;20924;-61
2023/08/15 12:44:16;;;;;;;4.78;2.15;;;;;;;;;;5050185;28;20413;-62
2023/08/15 12:46:43;;;;;;;5.53;2.22;;;;;;;;;;5050548;28;20498;-68
2023/08/15 12:49:10;;;;;;;3.80;1.92;;;;;;;;;;5053979;28;20473;-64
2023/08/15 12:51:37;;;;;;;5.33;2.27;;;;;;;;;;5059442;28;20423;-64
2023/08/15 12:54:05;;;;;;;5.55;2.05;;;;;;;;;;5054881;28;20443;-63
2023/08/15 12:56:32;;;;;;;4.47;2.00;;;;;;;;;;5051083;28;20408;-63
2023/08/15 12:58:59;;;;;;;6.22;2.15;;;;;;;;;;5054550;28;20959;-64
2023/08/15 13:01:27;;;;;;;4.60;1.98;;;;;;;;;;5056894;28;20406;-64
2023/08/15 13:03:55;;;;;;;5.32;2.00;;;;;;;;;;5060242;28;20571;-64
2023/08/15 13:06:22;;;;;;;7.55;2.13;;;;;;;;;;5054945;28;20424;-64
2023/08/15 13:08:49;;;;;;;5.03;2.08;;;;;;;;;;5047975;28;20973;-64
2023/08/15 13:11:16;;;;;;;5.40;2.22;;;;;;;;;;5061049;28;20423;-63
2023/08/15 13:13:43;;;;;;;4.57;2.17;;;;;;;;;;5043001;28;20492;-63
2023/08/15 13:16:11;;;;;;;4.00;1.90;;;;;;;;;;5057021;28;20429;-62
2023/08/15 13:18:39;;;;;;;3.92;1.95;;;;;;;;;;5046318;28;20407;-62
2023/08/15 13:21:07;;;;;;;5.88;2.08;;;;;;;;;;5053076;28;20411;-63
2023/08/15 13:23:34;;;;;;;5.07;2.03;;;;;;;;;;5050433;28;20904;-63
2023/08/15 13:26:01;;;;;;;5.27;2.20;;;;;;;;;;5050306;28;20448;-62
2023/08/15 13:28:28;;;;;;;4.20;2.00;;;;;;;;;;5051951;28;20886;-61
2023/08/15 13:30:55;;;;;;;4.20;1.90;;;;;;;;;;5061358;28;20483;-63
2023/08/15 13:33:22;;;;;;;4.70;2.00;;;;;;;;;;5059628;28;20417;-63
2023/08/15 13:35:50;;;;;;;4.55;2.10;;;;;;;;;;5054024;28;20925;-63
2023/08/15 13:38:17;;;;;;;5.20;2.10;;;;;;;;;;5058390;28;20440;-63
2023/08/15 13:40:44;;;;;;;5.20;2.00;;;;;;;;;;5061426;28;20440;-64
2023/08/15 13:43:13;;;;;;;4.68;2.10;;;;;;;;;;5062086;28;20847;-63
2023/08/15 13:45:40;;;;;;;4.10;2.13;;;;;;;;;;5060015;28;20833;-63
2023/08/15 13:48:08;;;;;;;4.68;2.05;;;;;;;;;;5062131;28;20437;-63
2023/08/15 13:50:35;;;;;;;4.72;2.05;;;;;;;;;;5060078;28;20429;-64
2023/08/15 13:53:03;;;;;;;5.95;2.50;;;;;;;;;;5062756;28;20412;-63
2023/08/15 13:55:30;;;;;;;7.18;2.10;;;;;;;;;;5058335;28;20409;-63
2023/08/15 13:57:57;;;;;;;4.60;1.80;;;;;;;;;;5059489;28;20427;-63
2023/08/15 14:00:24;;;;;;;5.35;2.20;;;;;;;;;;5056118;28;20844;-63
2023/08/15 14:02:51;;;;;;;5.03;2.20;;;;;;;;;;5063022;28;20411;-63
2023/08/15 14:05:18;;;;;;;5.53;2.20;;;;;;;;;;5059301;28;20407;-62
2023/08/15 14:07:45;;;;;;;4.68;1.88;;;;;;;;;;5062687;28;20407;-63
2023/08/15 14:10:14;;;;;;;7.55;2.40;;;;;;;;;;5059423;28;20917;-65
2023/08/15 14:12:41;;;;;;;7.20;2.05;;;;;;;;;;5062260;28;20569;-64
2023/08/15 14:15:08;;;;;;;5.45;2.08;;;;;;;;;;5060082;28;20412;-63
2023/08/15 14:17:35;;;;;;;4.95;1.92;;;;;;;;;;5058887;28;20496;-62
2023/08/15 14:20:03;;;;;;;5.20;1.90;;;;;;;;;;5062734;28;20483;-63
2023/08/15 14:22:30;;;;;;;5.75;2.20;;;;;;;;;;5058989;28;20424;-63
2023/08/15 14:24:57;;;;;;;7.82;2.17;;;;;;;;;;5061830;28;20411;-63
2023/08/15 14:27:26;;;;;;;4.25;1.98;;;;;;;;;;5057169;28;20413;-63
2023/08/15 14:29:53;;;;;;;4.75;2.33;;;;;;;;;;5056657;28;20467;-63
2023/08/15 14:32:20;;;;;;;5.20;2.30;;;;;;;;;;5059882;28;20417;-63
2023/08/15 14:34:48;;;;;;;7.03;2.30;;;;;;;;;;5060806;28;20457;-63
2023/08/15 14:37:15;;;;;;;4.60;1.92;;;;;;;;;;5060019;28;20443;-64
2023/08/15 14:39:43;;;;;;;4.85;2.17;;;;;;;;;;5060484;28;20410;-64